Cap Pasley — A8NQ6 — position and weather

sailwx.info

Track history (hours):
 
Tides and Currents Weather Stations Pressure Air Temp Water Temp Dewpoint Dewpoint Depression Visibility Wind Speed Wind Dir Waves Ship Positions

Cap Pasley

Last reported at 2018-Aug-06 07:28 UTC. Time now 2018-Aug-20 16:20 UTC.
Position N 26°29' W 114°36'.
Warning: this ship's position is 14 days out of date.

Length 186 m; draft 8.8 m.

MMSI: 636016648.

Date/timePositionNaut miles runAvg speedWind from/ knotsBaromVisibWave heightAir tempDewpointWater temp
2018-Aug-06 07:28N 26°29' W 114°36'3119.5
2018-Aug-06 05:52N 26°55' W 114°56'3419.2
2018-Aug-06 04:05N 27°22' W 115°19'219.5
2018-Aug-06 04:00N 27°24' W 115°20'1019.4
2018-Aug-06 03:30N 27°32' W 115°27'3119.4
2018-Aug-06 01:55N 27°56' W 115°47'1919.4
2018-Aug-06 00:56N 28°12' W 116°00'1019.4
2018-Aug-06 00:25N 28°20' W 116°07'1819.5
2018-Aug-05 23:30N 28°34' W 116°19'1819.4
2018-Aug-05 22:34N 28°48' W 116°32'2719.4
2018-Aug-05 21:09N 29°10' W 116°51'319.3
2018-Aug-05 21:00N 29°12' W 116°53'1019.3
2018-Aug-05 20:30N 29°20' W 117°00'1219.2
2018-Aug-05 19:52N 29°29' W 117°09'719.1
2018-Aug-05 19:30N 29°35' W 117°14'919.0
2018-Aug-05 19:00N 29°42' W 117°20'1019.0
2018-Aug-05 18:30N 29°50' W 117°27'1219.0
2018-Aug-05 17:52N 29°59' W 117°35'819.1
2018-Aug-05 17:26N 30°06' W 117°41'919.2
2018-Aug-05 16:58N 30°13' W 117°48'919.1
2018-Aug-05 16:30N 30°20' W 117°54'1019.5
2018-Aug-05 16:00N 30°28' W 118°01'1019.3
2018-Aug-05 15:30N 30°35' W 118°08'1119.2
2018-Aug-05 14:57N 30°44' W 118°15'1616.8
2018-Aug-05 14:00N 30°56' W 118°27'714.9
2018-Aug-05 13:31N 31°02' W 118°32'815.5
2018-Aug-05 13:00N 31°08' W 118°37'917.3
2018-Aug-05 12:30N 31°15' W 118°43'917.5
2018-Aug-05 12:00N 31°22' W 118°50'917.6
2018-Aug-05 11:30N 31°29' W 118°56'917.5
2018-Aug-05 11:00N 31°36' W 119°02'917.5
2018-Aug-05 10:30N 31°43' W 119°08'917.4
2018-Aug-05 10:00N 31°50' W 119°15'917.6
2018-Aug-05 09:30N 31°57' W 119°21'917.7
2018-Aug-05 09:00N 32°04' W 119°28'917.9
2018-Aug-05 08:30N 32°11' W 119°34'918.2
2018-Aug-05 08:00N 32°18' W 119°41'918.2
2018-Aug-05 07:30N 32°25' W 119°48'918.3
2018-Aug-05 07:00N 32°32' W 119°54'1118.3
2018-Aug-05 06:23N 32°41' W 120°02'718.3
2018-Aug-05 06:00N 32°47' W 120°07'917.8
2018-Aug-05 05:30N 32°54' W 120°14'917.6
2018-Aug-05 05:00N 33°01' W 120°20'917.7
2018-Aug-05 04:30N 33°08' W 120°27'917.6
2018-Aug-05 04:00N 33°15' W 120°33'917.9
2018-Aug-05 03:30N 33°22' W 120°40'917.7
2018-Aug-05 03:00N 33°29' W 120°46'918.1
2018-Aug-05 02:30N 33°36' W 120°53'918.1
2018-Aug-05 02:00N 33°43' W 120°59'918.0
2018-Aug-05 01:31N 33°50' W 121°06'918.0
2018-Aug-05 01:00N 33°58' W 121°13'918.0
2018-Aug-05 00:30N 34°05' W 121°17'918.3
2018-Aug-05 00:00N 34°14' W 121°21'918.0
2018-Aug-04 23:30N 34°22' W 121°25'917.8
2018-Aug-04 23:00N 34°31' W 121°29'918.0
2018-Aug-04 22:30N 34°39' W 121°33'917.4
2018-Aug-04 22:00N 34°47' W 121°37'918.0
2018-Aug-04 21:30N 34°56' W 121°41'918.4
2018-Aug-04 21:00N 35°04' W 121°45'918.1
2018-Aug-04 20:30N 35°13' W 121°48'917.9
2018-Aug-04 20:00N 35°21' W 121°52'918.0
2018-Aug-04 19:30N 35°30' W 121°56'918.4
2018-Aug-04 19:00N 35°38' W 122°00'918.3
2018-Aug-04 18:30N 35°47' W 122°04'918.7
2018-Aug-04 18:00N 35°55' W 122°08'918.5
2018-Aug-04 17:30N 36°04' W 122°12'918.3
2018-Aug-04 17:00N 36°13' W 122°16'918.0
2018-Aug-04 16:30N 36°21' W 122°20'918.3
2018-Aug-04 16:00N 36°30' W 122°25'918.4
2018-Aug-04 15:30N 36°38' W 122°28'918.3
2018-Aug-04 15:00N 36°47' W 122°32'918.1
2018-Aug-04 14:30N 36°55' W 122°36'918.2
2018-Aug-04 14:00N 37°04' W 122°40'918.0
2018-Aug-04 13:30N 37°13' W 122°42'918.0
2018-Aug-04 13:00N 37°22' W 122°43'918.1
2018-Aug-04 12:30N 37°31' W 122°44'917.6
2018-Aug-04 12:00N 37°39' W 122°44'714.8
2018-Aug-04 11:30N 37°46' W 122°40'815.1
2018-Aug-04 11:00N 37°48' W 122°31'612.4
2018-Aug-04 10:30N 37°49' W 122°23'4 7.0
2018-Aug-04 09:58N 37°48' W 122°19'0 0.0
2018-Aug-04 09:28N 37°48' W 122°19'0 0.0
2018-Aug-04 08:58N 37°48' W 122°19'0 0.0
2018-Aug-04 08:28N 37°48' W 122°19'0 0.0
2018-Aug-04 07:58N 37°48' W 122°19'0 0.0
2018-Aug-04 07:28N 37°48' W 122°19'0 0.0
2018-Aug-04 06:58N 37°48' W 122°19'0 0.0
2018-Aug-04 06:28N 37°48' W 122°19'0 0.0
2018-Aug-04 05:55N 37°48' W 122°19'0 0.0
2018-Aug-04 05:28N 37°48' W 122°19'0 0.0
2018-Aug-04 04:58N 37°48' W 122°19'0 0.0
2018-Aug-04 04:28N 37°48' W 122°19'0 0.0
2018-Aug-04 03:58N 37°48' W 122°19'0 0.0
2018-Aug-04 03:28N 37°48' W 122°19'0 0.0
2018-Aug-04 02:58N 37°48' W 122°19'0 0.0
2018-Aug-04 02:28N 37°48' W 122°19'0 0.0
2018-Aug-04 01:58N 37°48' W 122°19'0 0.3
2018-Aug-04 01:30N 37°48' W 122°19'3 5.3
2018-Aug-04 01:00N 37°48' W 122°22'612.4
2018-Aug-04 00:30N 37°48' W 122°30'816.6
2018-Aug-04 00:00N 37°45' W 122°39'4 8.5
2018-Aug-03 23:30N 37°41' W 122°40'4 7.4
2018-Aug-03 23:00N 37°37' W 122°40'5 9.7
2018-Aug-03 22:30N 37°32' W 122°40'5 9.7
2018-Aug-03 22:00N 37°27' W 122°40'5 9.5
2018-Aug-03 21:30N 37°22' W 122°40'612.2
2018-Aug-03 21:00N 37°16' W 122°39'917.3
2018-Aug-03 20:30N 37°08' W 122°37'917.6
2018-Aug-03 20:00N 36°59' W 122°34'917.4
2018-Aug-03 19:30N 36°51' W 122°31'817.3
2018-Aug-03 19:00N 36°43' W 122°28'917.4
2018-Aug-03 18:30N 36°35' W 122°23'917.5
2018-Aug-03 18:00N 36°27' W 122°18'917.8
2018-Aug-03 17:30N 36°20' W 122°12'917.8
2018-Aug-03 17:00N 36°12' W 122°07'917.5
2018-Aug-03 16:30N 36°04' W 122°02'917.2
2018-Aug-03 16:00N 35°56' W 121°57'917.8
2018-Aug-03 15:30N 35°48' W 121°52'918.2
2018-Aug-03 15:00N 35°40' W 121°47'918.1
2018-Aug-03 14:30N 35°32' W 121°42'918.2
2018-Aug-03 14:00N 35°24' W 121°37'918.1
2018-Aug-03 13:30N 35°16' W 121°31'917.7
2018-Aug-03 13:00N 35°09' W 121°25'917.7
2018-Aug-03 12:30N 35°02' W 121°19'917.7
2018-Aug-03 12:00N 34°54' W 121°14'918.1
2018-Aug-03 11:30N 34°46' W 121°08'918.2
2018-Aug-03 11:00N 34°39' W 121°02'918.1
2018-Aug-03 10:30N 34°31' W 120°56'917.1
2018-Aug-03 09:59N 34°25' W 120°48'918.1
2018-Aug-03 09:30N 34°23' W 120°38'918.4
2018-Aug-03 09:00N 34°20' W 120°27'1019.3
2018-Aug-03 08:30N 34°18' W 120°16'919.0
2018-Aug-03 08:00N 34°15' W 120°05'918.4
2018-Aug-03 07:31N 34°13' W 119°54'917.5
2018-Aug-03 07:00N 34°11' W 119°44'918.1
2018-Aug-03 06:30N 34°08' W 119°33'918.0
2018-Aug-03 06:00N 34°06' W 119°23'918.0
2018-Aug-03 05:31N 34°03' W 119°13'918.4
2018-Aug-03 05:00N 33°58' W 119°03'918.1
2018-Aug-03 04:30N 33°54' W 118°54'816.2
2018-Aug-03 04:00N 33°50' W 118°45'611.7
2018-Aug-03 03:30N 33°47' W 118°39'612.1
2018-Aug-03 03:00N 33°44' W 118°33'611.9
2018-Aug-03 02:30N 33°41' W 118°26'611.5
2018-Aug-03 02:00N 33°38' W 118°20'611.0
2018-Aug-03 01:30N 33°38' W 118°14'5 9.8
2018-Aug-03 01:00N 33°43' W 118°11'3 6.7
2018-Aug-03 00:30N 33°46' W 118°13'1 1.7
2018-Aug-02 23:59N 33°46' W 118°14'0 0.0
2018-Aug-02 23:29N 33°46' W 118°14'0 0.0
2018-Aug-02 22:59N 33°46' W 118°14'0 0.0
2018-Aug-02 22:29N 33°46' W 118°14'0 0.0
2018-Aug-02 21:59N 33°46' W 118°14'0 0.0
2018-Aug-02 21:29N 33°46' W 118°14'0 0.0
2018-Aug-02 20:59N 33°46' W 118°14'0 0.0
2018-Aug-02 20:29N 33°46' W 118°14'0 0.0
2018-Aug-02 19:59N 33°46' W 118°14'0 0.0
2018-Aug-02 19:29N 33°46' W 118°14'0 0.0
2018-Aug-02 18:59N 33°46' W 118°14'0 0.0
2018-Aug-02 18:29N 33°46' W 118°14'0 0.0
2018-Aug-02 17:59N 33°46' W 118°14'0 0.0
2018-Aug-02 17:29N 33°46' W 118°14'0 0.0
2018-Aug-02 16:59N 33°46' W 118°14'0 0.0
2018-Aug-02 16:29N 33°46' W 118°14'0 0.0
2018-Aug-02 15:59N 33°46' W 118°14'0 0.0
2018-Aug-02 15:29N 33°46' W 118°14'0 0.0
2018-Aug-02 14:59N 33°46' W 118°14'0 0.0
2018-Aug-02 14:29N 33°46' W 118°14'0 0.0
2018-Aug-02 13:59N 33°46' W 118°14'0 0.0
2018-Aug-02 13:30N 33°46' W 118°14'0 1.0
2018-Aug-02 13:00N 33°46' W 118°13'2 3.7
2018-Aug-02 12:30N 33°44' W 118°13'4 8.1
2018-Aug-02 12:00N 33°41' W 118°11'4 7.7
2018-Aug-02 11:30N 33°37' W 118°10'4 7.6
2018-Aug-02 11:00N 33°33' W 118°09'4 8.8
2018-Aug-02 10:30N 33°29' W 118°07'4 8.4
2018-Aug-02 10:00N 33°25' W 118°05'510.7
2018-Aug-02 09:30N 33°20' W 118°03'510.7
2018-Aug-02 09:00N 33°15' W 118°00'510.4
2018-Aug-02 08:30N 33°10' W 117°58'510.4
2018-Aug-02 08:00N 33°06' W 117°55'510.2
2018-Aug-02 07:30N 33°01' W 117°53'510.2
2018-Aug-02 07:00N 32°56' W 117°50'510.3
2018-Aug-02 06:30N 32°52' W 117°48'510.0
2018-Aug-02 06:00N 32°47' W 117°45'510.5
2018-Aug-02 05:30N 32°42' W 117°43'511.0
2018-Aug-02 05:00N 32°37' W 117°40'713.7
2018-Aug-02 04:30N 32°31' W 117°37'815.1
2018-Aug-02 04:00N 32°24' W 117°35'714.9
2018-Aug-02 03:31N 32°17' W 117°32'815.2
2018-Aug-02 03:01N 32°10' W 117°29'816.8
2018-Aug-02 02:30N 32°02' W 117°25'816.5
2018-Aug-02 02:00N 31°54' W 117°22'916.1
2018-Aug-02 01:29N 31°46' W 117°19'816.3
2018-Aug-02 01:00N 31°39' W 117°16'816.1
2018-Aug-02 00:30N 31°31' W 117°13'815.7
2018-Aug-02 00:00N 31°23' W 117°10'815.5
2018-Aug-01 23:31N 31°16' W 117°08'510.1
2018-Aug-01 23:01N 31°11' W 117°05'713.3
2018-Aug-01 22:31N 31°05' W 117°03'917.9
2018-Aug-01 22:01N 30°57' W 116°59'918.0
2018-Aug-01 21:30N 30°48' W 116°56'1018.2
2018-Aug-01 20:59N 30°39' W 116°52'918.1
2018-Aug-01 20:30N 30°31' W 116°49'918.0
2018-Aug-01 20:00N 30°22' W 116°46'3517.3
2018-Aug-01 17:59N 29°49' W 116°32'2217.6
2018-Aug-01 16:45N 29°28' W 116°25'517.6
2018-Aug-01 16:29N 29°24' W 116°23'917.5
2018-Aug-01 15:59N 29°16' W 116°20'917.6
2018-Aug-01 15:29N 29°07' W 116°16'917.7
2018-Aug-01 14:59N 28°59' W 116°13'1017.7
2018-Aug-01 14:26N 28°50' W 116°09'1717.5
2018-Aug-01 13:29N 28°34' W 116°03'917.6
2018-Aug-01 12:57N 28°26' W 115°60'5317.5
2018-Aug-01 09:54N 27°38' W 115°32'817.7
2018-Aug-01 09:25N 27°31' W 115°26'3017.7
2018-Aug-01 07:42N 27°06' W 115°06'518.1
2018-Aug-01 07:24N 27°02' W 115°02'3217.8
2018-Aug-01 05:36N 26°37' W 114°41'217.5
2018-Aug-01 05:30N 26°35' W 114°40'  
Track history (hours):
 
Tides and Currents Weather Stations Pressure Air Temp Water Temp Dewpoint Dewpoint Depression Visibility Wind Speed Wind Dir Waves Ship Positions

Cap Pasley

Last reported at 2018-Aug-06 07:28 UTC. Time now 2018-Aug-20 16:20 UTC.
Position N 26°29' W 114°36'.
Warning: this ship's position is 14 days out of date.

Length 186 m; draft 8.8 m.

MMSI: 636016648.

Date/timePositionNaut miles runAvg speedWind from/ knotsBaromVisibWave heightAir tempDewpointWater temp
2018-Aug-06 07:28N 26°29' W 114°36'3119.5
2018-Aug-06 05:52N 26°55' W 114°56'3419.2
2018-Aug-06 04:05N 27°22' W 115°19'219.5
2018-Aug-06 04:00N 27°24' W 115°20'1019.4
2018-Aug-06 03:30N 27°32' W 115°27'3119.4
2018-Aug-06 01:55N 27°56' W 115°47'1919.4
2018-Aug-06 00:56N 28°12' W 116°00'1019.4
2018-Aug-06 00:25N 28°20' W 116°07'1819.5
2018-Aug-05 23:30N 28°34' W 116°19'1819.4
2018-Aug-05 22:34N 28°48' W 116°32'2719.4
2018-Aug-05 21:09N 29°10' W 116°51'319.3
2018-Aug-05 21:00N 29°12' W 116°53'1019.3
2018-Aug-05 20:30N 29°20' W 117°00'1219.2
2018-Aug-05 19:52N 29°29' W 117°09'719.1
2018-Aug-05 19:30N 29°35' W 117°14'919.0
2018-Aug-05 19:00N 29°42' W 117°20'1019.0
2018-Aug-05 18:30N 29°50' W 117°27'1219.0
2018-Aug-05 17:52N 29°59' W 117°35'819.1
2018-Aug-05 17:26N 30°06' W 117°41'919.2
2018-Aug-05 16:58N 30°13' W 117°48'919.1
2018-Aug-05 16:30N 30°20' W 117°54'1019.5
2018-Aug-05 16:00N 30°28' W 118°01'1019.3
2018-Aug-05 15:30N 30°35' W 118°08'1119.2
2018-Aug-05 14:57N 30°44' W 118°15'1616.8
2018-Aug-05 14:00N 30°56' W 118°27'714.9
2018-Aug-05 13:31N 31°02' W 118°32'815.5
2018-Aug-05 13:00N 31°08' W 118°37'917.3
2018-Aug-05 12:30N 31°15' W 118°43'917.5
2018-Aug-05 12:00N 31°22' W 118°50'917.6
2018-Aug-05 11:30N 31°29' W 118°56'917.5
2018-Aug-05 11:00N 31°36' W 119°02'917.5
2018-Aug-05 10:30N 31°43' W 119°08'917.4
2018-Aug-05 10:00N 31°50' W 119°15'917.6
2018-Aug-05 09:30N 31°57' W 119°21'917.7
2018-Aug-05 09:00N 32°04' W 119°28'917.9
2018-Aug-05 08:30N 32°11' W 119°34'918.2
2018-Aug-05 08:00N 32°18' W 119°41'918.2
2018-Aug-05 07:30N 32°25' W 119°48'918.3
2018-Aug-05 07:00N 32°32' W 119°54'1118.3
2018-Aug-05 06:23N 32°41' W 120°02'718.3
2018-Aug-05 06:00N 32°47' W 120°07'917.8
2018-Aug-05 05:30N 32°54' W 120°14'917.6
2018-Aug-05 05:00N 33°01' W 120°20'917.7
2018-Aug-05 04:30N 33°08' W 120°27'917.6
2018-Aug-05 04:00N 33°15' W 120°33'917.9
2018-Aug-05 03:30N 33°22' W 120°40'917.7
2018-Aug-05 03:00N 33°29' W 120°46'918.1
2018-Aug-05 02:30N 33°36' W 120°53'918.1
2018-Aug-05 02:00N 33°43' W 120°59'918.0
2018-Aug-05 01:31N 33°50' W 121°06'918.0
2018-Aug-05 01:00N 33°58' W 121°13'918.0
2018-Aug-05 00:30N 34°05' W 121°17'918.3
2018-Aug-05 00:00N 34°14' W 121°21'918.0
2018-Aug-04 23:30N 34°22' W 121°25'917.8
2018-Aug-04 23:00N 34°31' W 121°29'918.0
2018-Aug-04 22:30N 34°39' W 121°33'917.4
2018-Aug-04 22:00N 34°47' W 121°37'918.0
2018-Aug-04 21:30N 34°56' W 121°41'918.4
2018-Aug-04 21:00N 35°04' W 121°45'918.1
2018-Aug-04 20:30N 35°13' W 121°48'917.9
2018-Aug-04 20:00N 35°21' W 121°52'918.0
2018-Aug-04 19:30N 35°30' W 121°56'918.4
2018-Aug-04 19:00N 35°38' W 122°00'918.3
2018-Aug-04 18:30N 35°47' W 122°04'918.7
2018-Aug-04 18:00N 35°55' W 122°08'918.5
2018-Aug-04 17:30N 36°04' W 122°12'918.3
2018-Aug-04 17:00N 36°13' W 122°16'918.0
2018-Aug-04 16:30N 36°21' W 122°20'918.3
2018-Aug-04 16:00N 36°30' W 122°25'918.4
2018-Aug-04 15:30N 36°38' W 122°28'918.3
2018-Aug-04 15:00N 36°47' W 122°32'918.1
2018-Aug-04 14:30N 36°55' W 122°36'918.2
2018-Aug-04 14:00N 37°04' W 122°40'918.0
2018-Aug-04 13:30N 37°13' W 122°42'918.0
2018-Aug-04 13:00N 37°22' W 122°43'918.1
2018-Aug-04 12:30N 37°31' W 122°44'917.6
2018-Aug-04 12:00N 37°39' W 122°44'714.8
2018-Aug-04 11:30N 37°46' W 122°40'815.1
2018-Aug-04 11:00N 37°48' W 122°31'612.4
2018-Aug-04 10:30N 37°49' W 122°23'4 7.0
2018-Aug-04 09:58N 37°48' W 122°19'0 0.0
2018-Aug-04 09:28N 37°48' W 122°19'0 0.0
2018-Aug-04 08:58N 37°48' W 122°19'0 0.0
2018-Aug-04 08:28N 37°48' W 122°19'0 0.0
2018-Aug-04 07:58N 37°48' W 122°19'0 0.0
2018-Aug-04 07:28N 37°48' W 122°19'0 0.0
2018-Aug-04 06:58N 37°48' W 122°19'0 0.0
2018-Aug-04 06:28N 37°48' W 122°19'0 0.0
2018-Aug-04 05:55N 37°48' W 122°19'0 0.0
2018-Aug-04 05:28N 37°48' W 122°19'0 0.0
2018-Aug-04 04:58N 37°48' W 122°19'0 0.0
2018-Aug-04 04:28N 37°48' W 122°19'0 0.0
2018-Aug-04 03:58N 37°48' W 122°19'0 0.0
2018-Aug-04 03:28N 37°48' W 122°19'0 0.0
2018-Aug-04 02:58N 37°48' W 122°19'0 0.0
2018-Aug-04 02:28N 37°48' W 122°19'0 0.0
2018-Aug-04 01:58N 37°48' W 122°19'0 0.3
2018-Aug-04 01:30N 37°48' W 122°19'3 5.3
2018-Aug-04 01:00N 37°48' W 122°22'612.4
2018-Aug-04 00:30N 37°48' W 122°30'816.6
2018-Aug-04 00:00N 37°45' W 122°39'4 8.5
2018-Aug-03 23:30N 37°41' W 122°40'4 7.4
2018-Aug-03 23:00N 37°37' W 122°40'5 9.7
2018-Aug-03 22:30N 37°32' W 122°40'5 9.7
2018-Aug-03 22:00N 37°27' W 122°40'5 9.5
2018-Aug-03 21:30N 37°22' W 122°40'612.2
2018-Aug-03 21:00N 37°16' W 122°39'917.3
2018-Aug-03 20:30N 37°08' W 122°37'917.6
2018-Aug-03 20:00N 36°59' W 122°34'917.4
2018-Aug-03 19:30N 36°51' W 122°31'817.3
2018-Aug-03 19:00N 36°43' W 122°28'917.4
2018-Aug-03 18:30N 36°35' W 122°23'917.5
2018-Aug-03 18:00N 36°27' W 122°18'917.8
2018-Aug-03 17:30N 36°20' W 122°12'917.8
2018-Aug-03 17:00N 36°12' W 122°07'917.5
2018-Aug-03 16:30N 36°04' W 122°02'917.2
2018-Aug-03 16:00N 35°56' W 121°57'917.8
2018-Aug-03 15:30N 35°48' W 121°52'918.2
2018-Aug-03 15:00N 35°40' W 121°47'918.1
2018-Aug-03 14:30N 35°32' W 121°42'918.2
2018-Aug-03 14:00N 35°24' W 121°37'918.1
2018-Aug-03 13:30N 35°16' W 121°31'917.7
2018-Aug-03 13:00N 35°09' W 121°25'917.7
2018-Aug-03 12:30N 35°02' W 121°19'917.7
2018-Aug-03 12:00N 34°54' W 121°14'918.1
2018-Aug-03 11:30N 34°46' W 121°08'918.2
2018-Aug-03 11:00N 34°39' W 121°02'918.1
2018-Aug-03 10:30N 34°31' W 120°56'917.1
2018-Aug-03 09:59N 34°25' W 120°48'918.1
2018-Aug-03 09:30N 34°23' W 120°38'918.4
2018-Aug-03 09:00N 34°20' W 120°27'1019.3
2018-Aug-03 08:30N 34°18' W 120°16'919.0
2018-Aug-03 08:00N 34°15' W 120°05'918.4
2018-Aug-03 07:31N 34°13' W 119°54'917.5
2018-Aug-03 07:00N 34°11' W 119°44'918.1
2018-Aug-03 06:30N 34°08' W 119°33'918.0
2018-Aug-03 06:00N 34°06' W 119°23'918.0
2018-Aug-03 05:31N 34°03' W 119°13'918.4
2018-Aug-03 05:00N 33°58' W 119°03'918.1
2018-Aug-03 04:30N 33°54' W 118°54'816.2
2018-Aug-03 04:00N 33°50' W 118°45'611.7
2018-Aug-03 03:30N 33°47' W 118°39'612.1
2018-Aug-03 03:00N 33°44' W 118°33'611.9
2018-Aug-03 02:30N 33°41' W 118°26'611.5
2018-Aug-03 02:00N 33°38' W 118°20'611.0
2018-Aug-03 01:30N 33°38' W 118°14'5 9.8
2018-Aug-03 01:00N 33°43' W 118°11'3 6.7
2018-Aug-03 00:30N 33°46' W 118°13'1 1.7
2018-Aug-02 23:59N 33°46' W 118°14'0 0.0
2018-Aug-02 23:29N 33°46' W 118°14'0 0.0
2018-Aug-02 22:59N 33°46' W 118°14'0 0.0
2018-Aug-02 22:29N 33°46' W 118°14'0 0.0
2018-Aug-02 21:59N 33°46' W 118°14'0 0.0
2018-Aug-02 21:29N 33°46' W 118°14'0 0.0
2018-Aug-02 20:59N 33°46' W 118°14'0 0.0
2018-Aug-02 20:29N 33°46' W 118°14'0 0.0
2018-Aug-02 19:59N 33°46' W 118°14'0 0.0
2018-Aug-02 19:29N 33°46' W 118°14'0 0.0
2018-Aug-02 18:59N 33°46' W 118°14'0 0.0
2018-Aug-02 18:29N 33°46' W 118°14'0 0.0
2018-Aug-02 17:59N 33°46' W 118°14'0 0.0
2018-Aug-02 17:29N 33°46' W 118°14'0 0.0
2018-Aug-02 16:59N 33°46' W 118°14'0 0.0
2018-Aug-02 16:29N 33°46' W 118°14'0 0.0
2018-Aug-02 15:59N 33°46' W 118°14'0 0.0
2018-Aug-02 15:29N 33°46' W 118°14'0 0.0
2018-Aug-02 14:59N 33°46' W 118°14'0 0.0
2018-Aug-02 14:29N 33°46' W 118°14'0 0.0
2018-Aug-02 13:59N 33°46' W 118°14'0 0.0
2018-Aug-02 13:30N 33°46' W 118°14'0 1.0
2018-Aug-02 13:00N 33°46' W 118°13'2 3.7
2018-Aug-02 12:30N 33°44' W 118°13'4 8.1
2018-Aug-02 12:00N 33°41' W 118°11'4 7.7
2018-Aug-02 11:30N 33°37' W 118°10'4 7.6
2018-Aug-02 11:00N 33°33' W 118°09'4 8.8
2018-Aug-02 10:30N 33°29' W 118°07'4 8.4
2018-Aug-02 10:00N 33°25' W 118°05'510.7
2018-Aug-02 09:30N 33°20' W 118°03'510.7
2018-Aug-02 09:00N 33°15' W 118°00'510.4
2018-Aug-02 08:30N 33°10' W 117°58'510.4
2018-Aug-02 08:00N 33°06' W 117°55'510.2
2018-Aug-02 07:30N 33°01' W 117°53'510.2
2018-Aug-02 07:00N 32°56' W 117°50'510.3
2018-Aug-02 06:30N 32°52' W 117°48'510.0
2018-Aug-02 06:00N 32°47' W 117°45'510.5
2018-Aug-02 05:30N 32°42' W 117°43'511.0
2018-Aug-02 05:00N 32°37' W 117°40'713.7
2018-Aug-02 04:30N 32°31' W 117°37'815.1
2018-Aug-02 04:00N 32°24' W 117°35'714.9
2018-Aug-02 03:31N 32°17' W 117°32'815.2
2018-Aug-02 03:01N 32°10' W 117°29'816.8
2018-Aug-02 02:30N 32°02' W 117°25'816.5
2018-Aug-02 02:00N 31°54' W 117°22'916.1
2018-Aug-02 01:29N 31°46' W 117°19'816.3
2018-Aug-02 01:00N 31°39' W 117°16'816.1
2018-Aug-02 00:30N 31°31' W 117°13'815.7
2018-Aug-02 00:00N 31°23' W 117°10'815.5
2018-Aug-01 23:31N 31°16' W 117°08'510.1
2018-Aug-01 23:01N 31°11' W 117°05'713.3
2018-Aug-01 22:31N 31°05' W 117°03'917.9
2018-Aug-01 22:01N 30°57' W 116°59'918.0
2018-Aug-01 21:30N 30°48' W 116°56'1018.2
2018-Aug-01 20:59N 30°39' W 116°52'918.1
2018-Aug-01 20:30N 30°31' W 116°49'918.0
2018-Aug-01 20:00N 30°22' W 116°46'3517.3
2018-Aug-01 17:59N 29°49' W 116°32'2217.6
2018-Aug-01 16:45N 29°28' W 116°25'517.6
2018-Aug-01 16:29N 29°24' W 116°23'917.5
2018-Aug-01 15:59N 29°16' W 116°20'917.6
2018-Aug-01 15:29N 29°07' W 116°16'917.7
2018-Aug-01 14:59N 28°59' W 116°13'1017.7
2018-Aug-01 14:26N 28°50' W 116°09'1717.5
2018-Aug-01 13:29N 28°34' W 116°03'917.6
2018-Aug-01 12:57N 28°26' W 115°60'5317.5
2018-Aug-01 09:54N 27°38' W 115°32'817.7
2018-Aug-01 09:25N 27°31' W 115°26'3017.7
2018-Aug-01 07:42N 27°06' W 115°06'518.1
2018-Aug-01 07:24N 27°02' W 115°02'3217.8
2018-Aug-01 05:36N 26°37' W 114°41'217.5
2018-Aug-01 05:30N 26°35' W 114°40'  

Dump ship's entire track history